Pagadian, Philippines
Current Conditions -  °F | °C
As of 5:00 PM on Monday 20 Oct 2014 (Local Time) from RPMZ Reporting Station
Few Clouds Few Clouds  
Wind Chill: 90°   Ceiling: Unl
Heat Index: 108°   Visibility: 6mi
Dew Point: 81°   Wind: 2mph
Humidity: 75%   Direction: 190°S
Pressure: 29.83"   Gusts: NA
Location:  7.84°N, 123.5°E
Report Text: RPMZ 200900Z 19002KT 9999 FEW017CB 32/27 Q1010 RMK A2985 CB NWSSW
Loading
Personal Weather Stations






























Interactive Weather Map
Tropical Storm Tracking
New forecast layout! Learn more

10-Day Weather Forecast

Advertisements
Track Severe Weather on mobile